23 de maio de 2022

Tempo Código Clima Temp. Visão Nuvens Vento METAR/SPECI
18:50
V
20 °C 10 km+ 3.600 ft 190°   190° 7 kt METAR EDLV 231650Z 19007KT 160V220 9999 VCSH FEW031TCU BKN036 20/17 Q0996
18:20
V
22 °C 10 km+ - 180°   180° 6 kt METAR EDLV 231620Z 18006KT 9999 -SHRA SCT039TCU 22/17 Q0996
17:50
V
22 °C 10 km+ - 180°   180° 7 kt METAR EDLV 231550Z 18007KT 150V220 CAVOK 22/17 Q0996
17:20
V
22 °C 10 km+ - 170°   170° 8 kt METAR EDLV 231520Z 17008KT 9999 FEW016TCU 22/18 Q0996
16:50
V
22 °C 10 km+ - 190°   190° 5 kt METAR EDLV 231450Z 19005KT 140V230 9999 VCTS FEW035CB 22/18 Q0997
16:20
V
22 °C 9 km - 150°   150° 9 kt METAR EDLV 231420Z 15009KT 9000 -SHRA FEW033TCU 22/16 Q0997
15:50
V
24 °C 10 km+ - 150°   150° 11 kt METAR EDLV 231350Z 15011KT 9999 -SHRA SCT033 24/15 Q0997
15:20
V
24 °C 10 km+ - 140°   140° 8 kt METAR EDLV 231320Z 14008KT CAVOK 24/14 Q0998
14:50
V
24 °C 10 km+ - 150°   150° 8 kt METAR EDLV 231250Z 15008KT 120V190 CAVOK 24/13 Q0998
14:20
V
24 °C 10 km+ - 130°   130° 7 kt METAR EDLV 231220Z 13007KT 060V170 CAVOK 24/13 Q0999
13:50
V
24 °C 10 km+ - 150°   150° 9 kt METAR EDLV 231150Z 15009KT 120V180 CAVOK 24/13 Q0999
13:20
V
24 °C 10 km+ - 130°   130° 8 kt METAR EDLV 231120Z 13008KT 100V160 9999 FEW046 24/13 Q1000
12:50
V
22 °C 10 km+ - 150°   150° 9 kt METAR EDLV 231050Z 15009KT 100V170 9999 FEW025 22/13 Q1001
12:20
V
21 °C 10 km+ - 140°   140° 8 kt METAR EDLV 231020Z 14008KT 100V160 CAVOK 21/12 Q1001
11:50
V
22 °C 10 km+ - 130°   130° 8 kt METAR EDLV 230950Z 13008KT CAVOK 22/12 Q1001
11:20
V
22 °C 10 km+ - 140°   140° 8 kt METAR EDLV 230920Z 14008KT 110V170 CAVOK 22/12 Q1002
10:50
V
21 °C 10 km+ - 150°   150° 9 kt METAR EDLV 230850Z 15009KT 120V180 CAVOK 21/13 Q1002
10:20
V
19 °C 10 km+ - 140°   140° 7 kt METAR EDLV 230820Z 14007KT 090V170 CAVOK 19/12 Q1003
09:50
V
19 °C 10 km+ - 130°   130° 8 kt METAR EDLV 230750Z 13008KT 090V160 CAVOK 19/12 Q1003
09:20
V
19 °C 10 km+ - 110°   110° 5 kt METAR EDLV 230720Z 11005KT 070V140 CAVOK 19/12 Q1003
08:50
V
18 °C 10 km+ - 110°   110° 5 kt METAR EDLV 230650Z 11005KT 060V130 CAVOK 18/12 Q1003
08:20
V
17 °C 10 km+ - 110°   110° 5 kt METAR EDLV 230620Z 11005KT 080V140 CAVOK 17/11 Q1004
07:50
V
17 °C 10 km+ - 110°   110° 4 kt METAR EDLV 230550Z 11004KT 060V130 CAVOK 17/12 Q1004
07:20
V
16 °C 10 km+ - 110°   110° 5 kt METAR EDLV 230520Z 11005KT 080V140 CAVOK 16/11 Q1004
06:50
V
15 °C 10 km+ - 100°   100° 3 kt METAR EDLV 230450Z 10003KT CAVOK 15/11 Q1005
06:20
V
14 °C 10 km+ - Var   Var 2 kt METAR EDLV 230420Z VRB02KT CAVOK 14/10 Q1005
05:50
V
15 °C 10 km+ - Var   Var 2 kt METAR EDLV 230350Z VRB02KT CAVOK 15/11 Q1005
05:20
V
15 °C 10 km+ - Var   Var 2 kt METAR EDLV 230320Z VRB02KT CAVOK 15/11 Q1006
04:50
V
16 °C 10 km+ 11.000 ft Var   Var 2 kt METAR EDLV 230250Z AUTO VRB02KT 9999 // BKN110/// OVC140/// 16/11 Q1006
04:20
V
16 °C 10 km+ 12.000 ft 090°   090° 3 kt METAR EDLV 230220Z AUTO 09003KT 030V130 9999 // SCT100/// OVC120/// 16/11 Q1007
03:50
V
16 °C 10 km+ 12.000 ft 090°   090° 3 kt METAR EDLV 230150Z AUTO 09003KT 040V120 9999 // FEW100/// OVC120/// 16/10 Q1007
03:20
V
16 °C 10 km+ 10.000 ft 070°   070° 4 kt METAR EDLV 230120Z AUTO 07004KT 010V120 9999 // SCT082/// OVC100/// 16/10 Q1007
02:50
V
16 °C 10 km+ 11.000 ft 080°   080° 4 kt METAR EDLV 230050Z AUTO 08004KT 040V130 9999 // FEW083/// BKN110/// OVC130/// 16/10 Q1007
02:20
V
16 °C 10 km+ 13.000 ft 110°   110° 5 kt METAR EDLV 230020Z AUTO 11005KT 080V140 9999 // OVC130/// 16/10 Q1007
01:50
V
16 °C 10 km+ 14.000 ft 110°   110° 5 kt METAR EDLV 222350Z AUTO 11005KT 080V140 9999 // OVC140/// 16/10 Q1008
01:20
V
17 °C 10 km+ 15.000 ft 090°   090° 4 kt METAR EDLV 222320Z AUTO 09004KT 060V130 9999 // FEW110/// OVC150/// 17/10 Q1009
00:50
V
17 °C 10 km+ 15.000 ft 080°   080° 3 kt METAR EDLV 222250Z AUTO 08003KT 030V130 9999 // SCT110/// OVC150/// 17/10 Q1009
00:20
V
17 °C 10 km+ 18.000 ft 080°   080° 3 kt METAR EDLV 222220Z AUTO 08003KT 050V130 9999 // SCT110/// OVC180/// 17/10 Q1009

22 de maio de 2022

Tempo Código Clima Temp. Visão Nuvens Vento METAR/SPECI
23:50
V
17 °C 10 km+ 18.000 ft 080°   080° 3 kt METAR EDLV 222150Z AUTO 08003KT 020V120 9999 // FEW110/// OVC180/// 17/10 Q1010
23:20
V
17 °C 10 km+ - 080°   080° 3 kt METAR EDLV 222120Z 08003KT 040V130 CAVOK 17/10 Q1010
22:50
V
18 °C 10 km+ - 080°   080° 3 kt METAR EDLV 222050Z 08003KT 040V130 CAVOK 18/10 Q1010
22:20
V
18 °C 10 km+ - 060°   060° 3 kt METAR EDLV 222020Z 06003KT 020V100 CAVOK 18/10 Q1010
21:50
V
19 °C 10 km+ - Var   Var 2 kt METAR EDLV 221950Z VRB02KT CAVOK 19/10 Q1010
21:20
V
19 °C 10 km+ - 060°   060° 2 kt METAR EDLV 221920Z 06002KT CAVOK 19/10 Q1010
20:50
V
20 °C 10 km+ - Var   Var 2 kt METAR EDLV 221850Z VRB02KT CAVOK 20/10 Q1010
20:20
V
21 °C 10 km+ - 060°   060° 3 kt METAR EDLV 221820Z 06003KT 020V100 CAVOK 21/10 Q1011
19:50
V
21 °C 10 km+ - 080°   080° 3 kt METAR EDLV 221750Z 08003KT 360V130 CAVOK 21/10 Q1011
19:20
V
22 °C 10 km+ - 060°   060° 4 kt METAR EDLV 221720Z 06004KT 350V120 CAVOK 22/10 Q1011
18:50
V
22 °C 10 km+ - Var   Var 4 kt METAR EDLV 221650Z VRB04KT CAVOK 22/10 Q1011
18:20
V
22 °C 10 km+ - 090°   090° 4 kt METAR EDLV 221620Z 09004KT 020V130 CAVOK 22/10 Q1012
17:50
V
22 °C 10 km+ - 100°   100° 5 kt METAR EDLV 221550Z 10005KT 350V150 CAVOK 22/10 Q1012
17:20
V
22 °C 10 km+ - Var   Var 4 kt METAR EDLV 221520Z VRB04KT CAVOK 22/10 Q1013
16:50
V
22 °C 10 km+ - Var   Var 5 kt METAR EDLV 221450Z VRB05KT CAVOK 22/10 Q1013
16:20
V
21 °C 10 km+ - 050°   050° 5 kt METAR EDLV 221420Z 05005KT 350V110 CAVOK 21/10 Q1013
15:50
V
21 °C 10 km+ - 080°   080° 5 kt METAR EDLV 221350Z 08005KT 010V140 9999 FEW047 21/10 Q1014
15:20
V
21 °C 10 km+ - Var   Var 4 kt METAR EDLV 221320Z VRB04KT 9999 FEW048 21/10 Q1014
14:50
V
21 °C 10 km+ - 130°   130° 5 kt METAR EDLV 221250Z 13005KT 070V220 9999 SCT047 21/10 Q1014
14:20
V
21 °C 10 km+ - Var   Var 3 kt METAR EDLV 221220Z VRB03KT 9999 SCT045 21/09 Q1015
13:50
V
20 °C 10 km+ - 110°   110° 6 kt METAR EDLV 221150Z 11006KT 060V150 9999 FEW042 20/09 Q1015
13:20
V
19 °C 10 km+ - Var   Var 5 kt METAR EDLV 221120Z VRB05KT 9999 SCT041 19/10 Q1015
12:50
V
19 °C 10 km+ - Var   Var 4 kt METAR EDLV 221050Z VRB04KT 9999 SCT040 19/10 Q1016
12:20
V
19 °C 10 km+ - 020°   020° 4 kt METAR EDLV 221020Z 02004KT 320V100 9999 SCT039 19/11 Q1016
11:50
V
18 °C 10 km+ - Var   Var 4 kt METAR EDLV 220950Z VRB04KT 9999 SCT035 18/09 Q1016
11:20
V
17 °C 10 km+ - Var   Var 4 kt METAR EDLV 220920Z VRB04KT 9999 FEW034 17/10 Q1016
10:50
V
17 °C 10 km+ - Var   Var 3 kt METAR EDLV 220850Z VRB03KT CAVOK 17/09 Q1017
10:20
V
17 °C 10 km+ - 020°   020° 3 kt METAR EDLV 220820Z 02003KT 330V100 9999 // FEW041 17/10 Q1017
09:50
V
16 °C 10 km+ 4.900 ft Var   Var 3 kt METAR EDLV 220750Z VRB03KT 9999 SCT040 BKN049 16/10 Q1018
09:20
V
15 °C 10 km+ 4.000 ft 080°   080° 3 kt METAR EDLV 220720Z 08003KT 020V130 9999 BKN040 15/10 Q1018
08:50
V
15 °C 10 km+ - 080°   080° 3 kt METAR EDLV 220650Z 08003KT 020V170 9999 FEW042 15/10 Q1018
08:20
V
14 °C 10 km+ - 090°   090° 3 kt METAR EDLV 220620Z 09003KT 040V140 CAVOK 14/10 Q1017
07:50
V
13 °C 10 km+ - Var   Var 2 kt METAR EDLV 220550Z VRB02KT CAVOK 13/10 Q1018
07:20
V
12 °C 10 km+ - Var   Var 1 kt METAR EDLV 220520Z VRB01KT CAVOK 12/10 Q1017
06:50
V
11 °C 10 km+ - Var   Var 1 kt METAR EDLV 220450Z VRB01KT CAVOK 11/10 Q1018
06:20
V
10 °C 10 km+ - Var   Var 1 kt METAR EDLV 220420Z VRB01KT 9999 SCT041 10/09 Q1018
05:50
V
10 °C 10 km+ 4.000 ft 020°   020° 2 kt METAR EDLV 220350Z 02002KT 9999 BKN040 10/09 Q1018
05:20
V
10 °C 10 km+ - Var   Var 2 kt METAR EDLV 220320Z VRB02KT 9999 SCT039 10/09 Q1018
04:50
V
10 °C 10 km+ 5.000 ft Var   Var 1 kt METAR EDLV 220250Z AUTO VRB01KT 9999 R27///// // SCT039/// BKN050/// 10/09 Q1018
04:20
V
10 °C 10 km+ 5.700 ft Var   000° 0 kt METAR EDLV 220220Z AUTO 00000KT 9999 R27///// // SCT041/// BKN057/// 10/09 Q1018
03:50
V
9 °C 10 km+ - Var   000° 0 kt METAR EDLV 220150Z AUTO 00000KT 9999 R27///// // SCT051/// 09/08 Q1019
03:20
V
10 °C 10 km+ - Var   000° 0 kt METAR EDLV 220120Z AUTO 00000KT 9999 R27///// // FEW057/// 10/09 Q1019
02:50
V
11 °C 10 km+ 22.000 ft 100°   100° 1 kt METAR EDLV 220050Z AUTO 10001KT 9999 R27///// // FEW050/// BKN220/// 11/09 Q1019
02:20
V
11 °C 10 km+ 22.000 ft 070°   070° 1 kt METAR EDLV 220020Z AUTO 07001KT 9999 R27///// // SCT058/// BKN220/// 11/09 Q1019
01:50
V
12 °C 10 km+ 22.000 ft Var   Var 2 kt METAR EDLV 212350Z AUTO VRB02KT 9999 R27///// // FEW056/// BKN220/// 12/09 Q1019
01:20
V
12 °C 10 km+ 5.700 ft Var   Var 1 kt METAR EDLV 212320Z AUTO VRB01KT 9999 R27///// // BKN057/// 12/09 Q1020
00:50
V
12 °C 10 km+ 5.500 ft Var   Var 2 kt METAR EDLV 212250Z AUTO VRB02KT 9999 R27///// // BKN055/// 12/10 Q1020
00:20
V
12 °C 10 km+ - Var   Var 1 kt METAR EDLV 212220Z AUTO VRB01KT 9999 R27///// // NCD 12/09 Q1019

21 de maio de 2022

Tempo Código Clima Temp. Visão Nuvens Vento METAR/SPECI
23:50
V
12 °C 10 km+ - Var   000° 0 kt METAR EDLV 212150Z 00000KT CAVOK 12/09 Q1020
23:20
V
12 °C 10 km+ - 350°   350° 1 kt METAR EDLV 212120Z 35001KT CAVOK 12/09 Q1020
22:50
V
13 °C 10 km+ - Var   000° 0 kt METAR EDLV 212050Z 00000KT 9999 R27///// NSC 13/10 Q1020
22:20
V
14 °C 10 km+ - 360°   360° 1 kt METAR EDLV 212020Z 36001KT CAVOK 14/10 Q1020
21:50
V
15 °C 10 km+ - Var   Var 1 kt METAR EDLV 211950Z VRB01KT 9999 NSC 15/09 Q1020
21:20
V
16 °C 10 km+ - 330°   330° 2 kt METAR EDLV 211920Z 33002KT 9999 NSC 16/10 Q1020
20:50
V
17 °C 10 km+ - 320°   320° 4 kt METAR EDLV 211850Z 32004KT 9999 FEW043 17/09 Q1020
20:20
V
18 °C 10 km+ - 320°   320° 4 kt METAR EDLV 211820Z 32004KT 290V350 9999 FEW042 18/10 Q1020
19:50
V
18 °C 10 km+ - 320°   320° 4 kt METAR EDLV 211750Z 32004KT 280V360 9999 SCT048 18/10 Q1020
19:20
V
18 °C 10 km+ 4.500 ft 310°   310° 5 kt METAR EDLV 211720Z 31005KT 270V350 9999 BKN045 18/10 Q1020
18:50
V
18 °C 10 km+ - 300°   300° 6 kt METAR EDLV 211650Z 30006KT 270V350 9999 FEW044 18/09 Q1020
18:20
V
19 °C 10 km+ - 290°   290° 8 kt METAR EDLV 211620Z 29008KT 9999 FEW044 19/09 Q1020
17:50
V
19 °C 10 km+ - 310°   310° 6 kt METAR EDLV 211550Z 31006KT 270V360 9999 FEW043 19/09 Q1020
17:20
V
19 °C 10 km+ - 290°   290° 5 kt METAR EDLV 211520Z 29005KT 260V320 9999 FEW046 19/09 Q1021
16:50
V
19 °C 10 km+ - 290°   290° 7 kt METAR EDLV 211450Z 29007KT 250V340 9999 FEW044 19/09 Q1021
Dados mais antigos

Baixe nosso aplicativo

Fácil acesso a todas as condições meteorológicas da aviação no seu celular e no seu tablet.
Com muitos recursos não disponíveis no site, como suporte offline e uma lista pessoal de aeroportos.

Nós e terceiros acompanhamos seu comportamento na internet em nosso site com cookies. Se você continuar, nós assumimos que você concorda com nossa política de cookies. Saiba mais